Time;durP1;ratioP1;P1;durP2;ratioP2;P2;SDS_P1;SDS_P2;PMS_P1;PMS_P2;Temp;Humidity;BMP_temperature;BMP_pressure;BME280_temperature;BME280_humidity;BME280_pressure;Samples;Min_cycle;Max_cycle;Signal;HPM_P1;HPM_P2
2024/01/29 00:02:23;;;;;;;4.70;2.90;;;;;;;;;;6277510;22;20029;-86
2024/01/29 00:04:50;;;;;;;4.40;2.63;;;;;;;;;;6299519;22;20015;-86
2024/01/29 00:07:17;;;;;;;4.43;3.10;;;;;;;;;;6302619;22;20014;-86
2024/01/29 00:09:45;;;;;;;5.00;2.70;;;;;;;;;;6274293;22;20405;-86
2024/01/29 00:12:12;;;;;;;4.72;3.15;;;;;;;;;;6302269;22;20023;-86
2024/01/29 00:14:39;;;;;;;3.55;2.75;;;;;;;;;;6273740;22;20068;-86
2024/01/29 00:17:07;;;;;;;5.20;2.80;;;;;;;;;;6300467;22;20054;-87
2024/01/29 00:19:34;;;;;;;3.55;2.88;;;;;;;;;;6277601;22;20071;-86
2024/01/29 00:22:02;;;;;;;3.63;2.97;;;;;;;;;;6301140;22;20022;-86
2024/01/29 00:24:29;;;;;;;5.05;2.90;;;;;;;;;;6301993;22;20022;-86
2024/01/29 00:26:56;;;;;;;4.53;2.83;;;;;;;;;;6298934;22;20109;-86
2024/01/29 00:29:24;;;;;;;3.77;3.10;;;;;;;;;;6300996;22;20021;-86
2024/01/29 00:31:51;;;;;;;4.28;3.00;;;;;;;;;;6300780;22;20642;-86
2024/01/29 00:34:19;;;;;;;3.95;2.80;;;;;;;;;;6303640;22;20046;-86
2024/01/29 00:36:47;;;;;;;4.53;2.97;;;;;;;;;;6301567;22;20320;-86
2024/01/29 00:39:14;;;;;;;3.53;2.72;;;;;;;;;;6276351;22;20021;-86
2024/01/29 00:41:42;;;;;;;4.45;2.97;;;;;;;;;;6273680;22;20397;-86
2024/01/29 00:44:09;;;;;;;4.97;3.40;;;;;;;;;;6301958;22;20026;-86
2024/01/29 00:46:39;;;;;;;7.82;2.90;;;;;;;;;;6276628;22;20768;-86
2024/01/29 00:49:06;;;;;;;4.95;3.03;;;;;;;;;;6276313;22;20010;-86
2024/01/29 00:51:34;;;;;;;3.90;2.88;;;;;;;;;;6302286;22;20022;-85
2024/01/29 00:54:02;;;;;;;5.85;2.65;;;;;;;;;;6275236;22;20073;-86
2024/01/29 00:56:29;;;;;;;5.05;2.92;;;;;;;;;;6276700;22;20041;-86
2024/01/29 00:58:59;;;;;;;7.20;2.97;;;;;;;;;;6299005;22;20010;-86
2024/01/29 01:01:27;;;;;;;4.45;2.80;;;;;;;;;;6302710;22;20022;-86
2024/01/29 01:03:56;;;;;;;5.15;3.33;;;;;;;;;;6267858;22;20023;-86
2024/01/29 01:06:22;;;;;;;5.03;3.33;;;;;;;;;;6271543;22;20019;-86
2024/01/29 01:08:49;;;;;;;5.13;3.20;;;;;;;;;;6269282;22;20090;-86
2024/01/29 01:11:16;;;;;;;4.73;3.27;;;;;;;;;;6245932;22;20499;-86
2024/01/29 01:13:44;;;;;;;4.82;3.60;;;;;;;;;;6243224;22;20281;-86
2024/01/29 01:16:11;;;;;;;4.05;2.97;;;;;;;;;;6272096;22;20011;-86
2024/01/29 01:18:38;;;;;;;5.22;3.15;;;;;;;;;;6244264;22;20019;-86
2024/01/29 01:21:05;;;;;;;3.90;3.13;;;;;;;;;;6245134;22;20455;-86
2024/01/29 01:23:33;;;;;;;5.55;3.75;;;;;;;;;;6271686;22;20023;-86
2024/01/29 01:26:00;;;;;;;6.82;3.08;;;;;;;;;;6244166;22;20012;-86
2024/01/29 01:28:27;;;;;;;5.00;2.97;;;;;;;;;;6272064;22;20023;-86
2024/01/29 01:30:54;;;;;;;5.03;3.20;;;;;;;;;;6268810;22;20011;-86
2024/01/29 01:33:22;;;;;;;5.57;3.38;;;;;;;;;;6271741;22;20105;-86
2024/01/29 01:35:49;;;;;;;5.00;3.45;;;;;;;;;;6244561;22;20023;-86
2024/01/29 01:38:16;;;;;;;4.22;3.42;;;;;;;;;;6273479;22;20011;-86
2024/01/29 01:40:44;;;;;;;4.03;2.85;;;;;;;;;;6245551;22;20023;-86
2024/01/29 01:43:20;;;;;;;3.97;3.03;;;;;;;;;;6275325;22;20026;-86
2024/01/29 01:46:09;;;;;;;5.88;3.53;;;;;;;;;;6294429;22;20030;-86
2024/01/29 01:48:37;;;;;;;3.83;2.95;;;;;;;;;;6272103;22;20019;-86
2024/01/29 01:51:04;;;;;;;4.40;3.13;;;;;;;;;;6296893;22;20019;-86
2024/01/29 01:53:32;;;;;;;4.18;3.15;;;;;;;;;;6246102;22;20785;-86
2024/01/29 01:56:02;;;;;;;4.30;3.28;;;;;;;;;;6244837;22;20015;-86
2024/01/29 01:58:30;;;;;;;4.90;3.30;;;;;;;;;;6248411;22;20023;-85
2024/01/29 02:00:57;;;;;;;5.13;3.40;;;;;;;;;;6270817;22;20094;-85
2024/01/29 02:03:28;;;;;;;4.07;3.30;;;;;;;;;;6272895;22;20021;-86
2024/01/29 02:05:55;;;;;;;4.75;3.03;;;;;;;;;;6269370;22;20007;-85
2024/01/29 02:08:22;;;;;;;4.07;3.03;;;;;;;;;;6248202;22;20039;-86
2024/01/29 02:10:50;;;;;;;6.47;3.13;;;;;;;;;;6244742;22;20296;-86
2024/01/29 02:13:17;;;;;;;4.80;3.17;;;;;;;;;;6273413;22;20053;-86
2024/01/29 02:15:44;;;;;;;4.03;3.33;;;;;;;;;;6245498;22;20516;-86
2024/01/29 02:18:11;;;;;;;3.88;3.15;;;;;;;;;;6273284;22;20016;-86
2024/01/29 02:20:39;;;;;;;4.40;3.45;;;;;;;;;;6246292;22;20446;-86
2024/01/29 02:23:06;;;;;;;9.23;3.63;;;;;;;;;;6246948;22;20023;-85
2024/01/29 02:25:33;;;;;;;5.20;3.20;;;;;;;;;;6246947;22;20053;-85
2024/01/29 02:28:01;;;;;;;5.40;4.05;;;;;;;;;;6246351;22;20026;-85
2024/01/29 02:30:28;;;;;;;6.40;3.87;;;;;;;;;;6272806;22;20019;-86
2024/01/29 02:32:55;;;;;;;5.75;3.85;;;;;;;;;;6246181;22;20274;-86
2024/01/29 02:35:22;;;;;;;6.47;3.35;;;;;;;;;;6247689;22;20066;-86
2024/01/29 02:37:50;;;;;;;9.20;3.80;;;;;;;;;;6245758;22;20023;-85
2024/01/29 02:40:17;;;;;;;6.55;3.20;;;;;;;;;;6246993;22;20015;-86
2024/01/29 02:42:44;;;;;;;7.82;3.63;;;;;;;;;;6245927;22;20015;-86
2024/01/29 02:45:11;;;;;;;7.82;3.67;;;;;;;;;;6246974;22;20019;-86
2024/01/29 02:47:39;;;;;;;6.25;3.90;;;;;;;;;;6245332;22;20106;-85
2024/01/29 02:50:06;;;;;;;3.95;3.28;;;;;;;;;;6246110;22;20506;-85
2024/01/29 02:52:34;;;;;;;5.23;3.57;;;;;;;;;;6247774;22;20022;-86
2024/01/29 02:55:01;;;;;;;3.90;3.50;;;;;;;;;;6245085;22;20045;-85
2024/01/29 02:57:28;;;;;;;5.82;3.50;;;;;;;;;;6271585;22;20015;-85
2024/01/29 02:59:56;;;;;;;3.75;3.10;;;;;;;;;;6270048;22;20027;-86
2024/01/29 03:02:23;;;;;;;5.77;3.37;;;;;;;;;;6246415;22;20019;-85
2024/01/29 03:04:51;;;;;;;5.70;3.60;;;;;;;;;;6244956;22;20088;-86
2024/01/29 03:07:18;;;;;;;4.53;3.30;;;;;;;;;;6247496;22;20392;-86
2024/01/29 03:09:45;;;;;;;4.40;3.40;;;;;;;;;;6269895;22;20015;-86
2024/01/29 03:12:13;;;;;;;4.05;3.65;;;;;;;;;;6271723;22;20012;-86
2024/01/29 03:14:41;;;;;;;4.60;3.28;;;;;;;;;;6269241;22;20030;-86
2024/01/29 03:17:07;;;;;;;5.15;3.78;;;;;;;;;;6248052;22;20026;-86
2024/01/29 03:19:34;;;;;;;4.93;3.70;;;;;;;;;;6246574;22;20015;-86
2024/01/29 03:22:02;;;;;;;5.00;3.53;;;;;;;;;;6244207;22;20573;-86
2024/01/29 03:24:29;;;;;;;6.65;4.10;;;;;;;;;;6245278;22;20015;-86
2024/01/29 03:26:56;;;;;;;4.88;3.30;;;;;;;;;;6269391;22;20094;-86
2024/01/29 03:29:23;;;;;;;6.68;3.40;;;;;;;;;;6246450;22;20308;-86
2024/01/29 03:31:51;;;;;;;7.22;4.30;;;;;;;;;;6246173;22;20094;-86
2024/01/29 03:34:18;;;;;;;6.85;4.13;;;;;;;;;;6272635;22;20019;-86
2024/01/29 03:36:46;;;;;;;6.25;4.05;;;;;;;;;;6245018;22;20126;-86
2024/01/29 03:39:13;;;;;;;4.45;4.05;;;;;;;;;;6246701;22;20019;-86
2024/01/29 03:41:40;;;;;;;5.38;3.88;;;;;;;;;;6243794;22;20030;-86
2024/01/29 03:44:07;;;;;;;6.03;4.68;;;;;;;;;;6272244;22;20019;-86
2024/01/29 03:46:34;;;;;;;5.50;4.20;;;;;;;;;;6295758;22;20073;-86
2024/01/29 03:49:01;;;;;;;7.22;4.45;;;;;;;;;;6294814;22;20307;-87
2024/01/29 03:51:29;;;;;;;6.43;4.25;;;;;;;;;;6245845;22;20046;-87
2024/01/29 03:53:55;;;;;;;5.57;4.43;;;;;;;;;;6270410;22;20098;-86
2024/01/29 03:56:22;;;;;;;6.50;4.00;;;;;;;;;;6272066;22;20050;-86
2024/01/29 03:58:49;;;;;;;6.30;4.50;;;;;;;;;;6296418;22;20030;-86
2024/01/29 04:01:27;;;;;;;6.10;4.38;;;;;;;;;;6246764;22;20035;-86
2024/01/29 04:03:55;;;;;;;5.43;4.53;;;;;;;;;;6271246;22;20050;-86
2024/01/29 04:06:22;;;;;;;;;;;;;;;;;;6248367;22;20023;-86
2024/01/29 04:08:51;;;;;;;6.55;4.00;;;;;;;;;;6269899;22;19922;-85
2024/01/29 04:11:18;;;;;;;5.70;4.60;;;;;;;;;;6271269;22;20052;-86
2024/01/29 04:13:45;;;;;;;5.90;4.32;;;;;;;;;;6243891;22;20026;-86
2024/01/29 04:16:13;;;;;;;8.02;5.00;;;;;;;;;;6272163;22;20122;-86
2024/01/29 04:18:40;;;;;;;7.18;4.28;;;;;;;;;;6294394;22;20023;-86
2024/01/29 04:21:10;;;;;;;6.20;4.30;;;;;;;;;;6245221;22;20080;-86
2024/01/29 04:23:41;;;;;;;5.50;4.07;;;;;;;;;;6270278;22;20015;-86
2024/01/29 04:26:08;;;;;;;4.93;4.18;;;;;;;;;;6297534;22;20042;-87
2024/01/29 04:28:37;;;;;;;6.10;4.57;;;;;;;;;;6244917;22;20097;-86
2024/01/29 04:31:04;;;;;;;5.85;4.00;;;;;;;;;;6247343;22;20017;-86
2024/01/29 04:33:31;;;;;;;6.15;3.53;;;;;;;;;;6270208;22;20070;-86
2024/01/29 04:35:59;;;;;;;5.55;4.05;;;;;;;;;;6269110;22;20983;-86
2024/01/29 04:38:26;;;;;;;5.65;3.50;;;;;;;;;;6244865;22;20828;-86
2024/01/29 04:40:53;;;;;;;5.07;3.88;;;;;;;;;;6243308;22;20794;-86
2024/01/29 04:43:20;;;;;;;7.25;4.00;;;;;;;;;;6245289;22;20015;-86
2024/01/29 04:45:49;;;;;;;5.28;3.47;;;;;;;;;;6243157;22;20015;-86
2024/01/29 04:48:16;;;;;;;7.10;4.28;;;;;;;;;;6247074;22;20023;-86
2024/01/29 04:50:43;;;;;;;6.78;3.60;;;;;;;;;;6269279;22;20447;-86
2024/01/29 04:53:12;;;;;;;6.35;4.65;;;;;;;;;;6245703;22;20411;-86
2024/01/29 04:55:38;;;;;;;4.60;3.95;;;;;;;;;;6272657;22;20757;-86
2024/01/29 04:58:05;;;;;;;5.90;3.85;;;;;;;;;;6276118;22;20019;-86
2024/01/29 05:00:32;;;;;;;5.43;3.80;;;;;;;;;;6250822;22;20022;-86
2024/01/29 05:02:59;;;;;;;5.03;3.40;;;;;;;;;;6275233;22;20041;-86
2024/01/29 05:05:26;;;;;;;4.78;3.72;;;;;;;;;;6277885;22;20011;-86
2024/01/29 05:07:54;;;;;;;4.70;3.97;;;;;;;;;;6250230;22;20098;-86
2024/01/29 05:10:21;;;;;;;6.13;4.20;;;;;;;;;;6250271;22;20145;-86
2024/01/29 05:12:48;;;;;;;4.75;3.75;;;;;;;;;;6249319;22;20642;-86
2024/01/29 05:15:15;;;;;;;6.28;3.53;;;;;;;;;;6253276;22;20056;-86
2024/01/29 05:17:42;;;;;;;7.10;3.67;;;;;;;;;;6277052;22;20439;-87
2024/01/29 05:20:10;;;;;;;4.95;3.53;;;;;;;;;;6278685;22;20018;-86
2024/01/29 05:22:37;;;;;;;6.93;4.15;;;;;;;;;;6278437;22;20076;-87
2024/01/29 05:25:04;;;;;;;5.05;3.83;;;;;;;;;;6304702;22;20098;-86
2024/01/29 05:27:32;;;;;;;5.10;3.90;;;;;;;;;;6278715;22;20044;-86
2024/01/29 05:29:59;;;;;;;5.70;4.15;;;;;;;;;;6275337;22;20051;-86
2024/01/29 05:32:26;;;;;;;5.30;3.63;;;;;;;;;;6254451;22;20011;-86
2024/01/29 05:34:53;;;;;;;5.75;4.03;;;;;;;;;;6250741;22;20343;-86
2024/01/29 05:37:20;;;;;;;6.95;4.25;;;;;;;;;;6252566;22;20963;-86
2024/01/29 05:39:48;;;;;;;6.13;4.22;;;;;;;;;;6251227;22;20349;-86
2024/01/29 05:42:16;;;;;;;5.45;4.05;;;;;;;;;;6303017;22;20030;-86
2024/01/29 05:44:43;;;;;;;6.10;4.35;;;;;;;;;;6275285;22;20064;-86
2024/01/29 05:47:12;;;;;;;7.47;4.30;;;;;;;;;;6302807;22;20029;-86
2024/01/29 05:49:39;;;;;;;5.97;4.20;;;;;;;;;;6277003;22;20050;-86
2024/01/29 05:52:06;;;;;;;5.60;4.00;;;;;;;;;;6249587;22;20031;-86
2024/01/29 05:54:34;;;;;;;5.30;4.15;;;;;;;;;;6270547;22;20029;-87
2024/01/29 05:57:01;;;;;;;6.80;4.10;;;;;;;;;;6245042;22;20080;-86
2024/01/29 05:59:28;;;;;;;5.07;3.92;;;;;;;;;;6246749;22;20020;-86
2024/01/29 06:01:55;;;;;;;5.75;3.90;;;;;;;;;;6270592;22;20047;-86
2024/01/29 06:04:23;;;;;;;7.35;4.25;;;;;;;;;;6247345;22;20331;-86
2024/01/29 06:06:50;;;;;;;5.82;3.95;;;;;;;;;;6295257;22;20015;-86
2024/01/29 06:09:17;;;;;;;7.45;5.00;;;;;;;;;;6246321;22;20027;-86
2024/01/29 06:11:44;;;;;;;6.63;4.22;;;;;;;;;;6268859;22;20011;-86
2024/01/29 06:14:12;;;;;;;6.00;4.22;;;;;;;;;;6272938;22;20019;-86
2024/01/29 06:16:39;;;;;;;4.55;3.53;;;;;;;;;;6270723;22;20090;-85
2024/01/29 06:19:09;;;;;;;5.88;4.50;;;;;;;;;;6298007;22;20022;-85
2024/01/29 06:21:37;;;;;;;6.78;4.90;;;;;;;;;;6249012;22;20047;-86
2024/01/29 06:24:05;;;;;;;5.55;4.22;;;;;;;;;;6247258;22;20054;-86
2024/01/29 06:26:33;;;;;;;6.25;4.85;;;;;;;;;;6247747;22;20019;-87
2024/01/29 06:29:00;;;;;;;7.28;4.15;;;;;;;;;;6270491;22;20149;-86
2024/01/29 06:31:27;;;;;;;6.35;4.68;;;;;;;;;;6270641;22;20060;-86
2024/01/29 06:33:55;;;;;;;6.30;4.13;;;;;;;;;;6243130;22;20011;-86
2024/01/29 06:36:22;;;;;;;4.95;3.75;;;;;;;;;;6271572;22;20348;-87
2024/01/29 06:38:50;;;;;;;5.82;4.53;;;;;;;;;;6243755;22;20019;-85
2024/01/29 06:41:24;;;;;;;7.27;4.90;;;;;;;;;;6247354;22;20007;-86
2024/01/29 06:43:51;;;;;;;5.60;4.30;;;;;;;;;;6244103;22;20011;-86
2024/01/29 06:46:19;;;;;;;6.67;4.73;;;;;;;;;;6247175;22;20011;-86
2024/01/29 07:16:05;;;;;;;7.93;5.57;;;;;;;;;;6245477;22;20057;31
2024/01/29 07:18:32;;;;;;;6.03;5.40;;;;;;;;;;6226175;22;20034;-90
2024/01/29 07:21:02;;;;;;;6.78;5.47;;;;;;;;;;6201680;22;20023;-90
2024/01/29 07:23:30;;;;;;;6.35;5.10;;;;;;;;;;6210467;22;20431;-88
2024/01/29 07:25:57;;;;;;;5.93;5.32;;;;;;;;;;6236775;22;20938;-90
2024/01/29 07:28:25;;;;;;;7.78;5.43;;;;;;;;;;6239814;22;20133;-89
2024/01/29 07:30:53;;;;;;;6.72;5.38;;;;;;;;;;6186145;22;20011;-89
2024/01/29 07:33:21;;;;;;;7.38;5.43;;;;;;;;;;6189975;22;20023;-89
2024/01/29 07:35:49;;;;;;;6.40;5.43;;;;;;;;;;6236957;22;20094;-90
2024/01/29 07:38:16;;;;;;;6.53;5.32;;;;;;;;;;6188998;22;20125;-89
2024/01/29 07:40:44;;;;;;;6.97;5.45;;;;;;;;;;6211420;22;20027;-89
2024/01/29 07:43:11;;;;;;;7.00;5.03;;;;;;;;;;6236780;22;20043;-92
2024/01/29 07:45:38;;;;;;;6.17;5.53;;;;;;;;;;6265067;22;20108;-92
2024/01/29 07:48:08;;;;;;;7.53;5.70;;;;;;;;;;6214347;22;20019;-92
2024/01/29 07:50:38;;;;;;;7.47;5.40;;;;;;;;;;6212334;22;20412;-91
2024/01/29 07:53:10;;;;;;;8.70;5.65;;;;;;;;;;6235157;22;20535;-91
2024/01/29 07:55:45;;;;;;;7.25;5.68;;;;;;;;;;6236762;22;20024;-92
2024/01/29 07:58:11;;;;;;;7.50;5.43;;;;;;;;;;6239479;22;20388;-92
2024/01/29 08:00:40;;;;;;;8.60;5.28;;;;;;;;;;6212859;22;20065;-92
2024/01/29 08:03:07;;;;;;;;;;;;;;;;;;6188379;22;20106;-91
2024/01/29 08:05:34;;;;;;;7.53;5.80;;;;;;;;;;6238999;22;19929;-92
2024/01/29 08:08:01;;;;;;;7.00;5.28;;;;;;;;;;6210064;22;20262;-92
2024/01/29 08:10:30;;;;;;;5.97;5.10;;;;;;;;;;6214326;22;20016;-92
2024/01/29 08:12:58;;;;;;;8.45;4.90;;;;;;;;;;6212975;22;20334;-92
2024/01/29 08:15:24;;;;;;;6.80;4.60;;;;;;;;;;6240548;22;20042;-92
2024/01/29 08:17:50;;;;;;;7.53;5.22;;;;;;;;;;6212361;22;20096;-91
2024/01/29 08:20:17;;;;;;;6.70;4.80;;;;;;;;;;6267433;22;20019;-91
2024/01/29 08:22:46;;;;;;;6.95;5.40;;;;;;;;;;6210848;22;20450;-91
2024/01/29 08:25:17;;;;;;;8.55;5.05;;;;;;;;;;6267313;22;20022;-90
2024/01/29 08:27:46;;;;;;;6.22;4.75;;;;;;;;;;6237460;22;20073;-90
2024/01/29 08:30:14;;;;;;;7.43;4.82;;;;;;;;;;6215499;22;20065;-90
2024/01/29 08:32:42;;;;;;;8.48;5.65;;;;;;;;;;6236949;22;20012;-90
2024/01/29 08:35:10;;;;;;;8.30;5.50;;;;;;;;;;6214799;22;20019;-89
2024/01/29 08:37:40;;;;;;;8.30;5.47;;;;;;;;;;6214191;22;20019;-90
2024/01/29 08:40:07;;;;;;;6.40;5.43;;;;;;;;;;6214708;22;20038;-90
2024/01/29 08:42:36;;;;;;;7.10;4.90;;;;;;;;;;6203240;22;20102;-89
2024/01/29 08:45:05;;;;;;;7.25;5.22;;;;;;;;;;6234259;22;20320;-89
2024/01/29 08:47:32;;;;;;;6.80;5.18;;;;;;;;;;6188011;22;20023;-88
2024/01/29 08:50:09;;;;;;;5.30;4.72;;;;;;;;;;6266386;22;20014;-90
2024/01/29 08:52:36;;;;;;;6.00;5.15;;;;;;;;;;6236790;22;20019;-89
2024/01/29 08:55:03;;;;;;;7.63;5.05;;;;;;;;;;6259865;22;20456;-89
2024/01/29 08:57:31;;;;;;;6.97;4.85;;;;;;;;;;6237920;22;20026;-90
2024/01/29 09:00:00;;;;;;;6.45;5.38;;;;;;;;;;6236166;22;20483;-90
2024/01/29 09:02:33;;;;;;;6.60;4.75;;;;;;;;;;6266278;22;20044;-89
2024/01/29 09:05:00;;;;;;;9.55;5.40;;;;;;;;;;6211111;22;20011;-90
2024/01/29 09:07:28;;;;;;;8.57;5.85;;;;;;;;;;6189319;22;20473;-90
2024/01/29 09:09:56;;;;;;;9.00;5.68;;;;;;;;;;6263105;22;20012;-90
2024/01/29 09:12:24;;;;;;;;;;;;;;;;;;6213905;22;20016;-90
2024/01/29 09:14:50;;;;;;;10.70;5.90;;;;;;;;;;6236631;22;19911;-90
2024/01/29 09:17:16;;;;;;;8.35;5.38;;;;;;;;;;6226994;23;20086;-90
2024/01/29 09:19:45;;;;;;;8.20;5.63;;;;;;;;;;6155055;23;20024;-90
2024/01/29 09:22:13;;;;;;;8.80;5.90;;;;;;;;;;6208990;23;20023;-90
2024/01/29 09:24:39;;;;;;;;;;;;;;;;;;6182426;23;20023;-89
2024/01/29 09:27:08;;;;;;;6.68;5.10;;;;;;;;;;6209372;23;19919;-90
2024/01/29 09:29:35;;;;;;;;;;;;;;;;;;6209786;23;20020;-90
2024/01/29 09:32:16;;;;;;;8.10;5.60;;;;;;;;;;6236818;23;20029;-90
2024/01/29 09:34:43;;;;;;;7.80;5.65;;;;;;;;;;6205806;23;20434;-90
2024/01/29 09:37:10;;;;;;;8.27;5.72;;;;;;;;;;6209651;23;20481;-90
2024/01/29 09:39:40;;;;;;;8.63;5.80;;;;;;;;;;6183592;23;20472;-91
2024/01/29 09:42:08;;;;;;;9.10;6.25;;;;;;;;;;6183938;23;20028;-91
2024/01/29 09:44:38;;;;;;;9.20;6.50;;;;;;;;;;6209681;23;20079;-92
2024/01/29 09:47:10;;;;;;;8.27;6.30;;;;;;;;;;6158104;23;20083;-91
2024/01/29 09:49:38;;;;;;;7.78;5.30;;;;;;;;;;6180640;23;20334;-90
2024/01/29 09:52:14;;;;;;;6.40;5.60;;;;;;;;;;6181672;23;20023;-91
2024/01/29 09:54:42;;;;;;;7.07;5.93;;;;;;;;;;6178261;23;20073;-91
2024/01/29 09:57:15;;;;;;;9.05;6.00;;;;;;;;;;6179727;23;20027;-89
2024/01/29 09:59:44;;;;;;;8.27;6.10;;;;;;;;;;6181533;23;20031;-90
2024/01/29 10:02:20;;;;;;;6.37;5.50;;;;;;;;;;6210127;23;20054;-89
2024/01/29 10:04:48;;;;;;;8.00;5.85;;;;;;;;;;6181280;23;20262;-91
2024/01/29 10:07:16;;;;;;;7.20;5.55;;;;;;;;;;6183497;23;20500;-90
2024/01/29 10:09:42;;;;;;;;;;;;;;;;;;6181180;23;20020;-91
2024/01/29 10:12:19;;;;;;;6.85;6.05;;;;;;;;;;6182847;23;19923;-91
2024/01/29 10:14:47;;;;;;;8.13;6.43;;;;;;;;;;6181183;23;20027;-92
2024/01/29 10:17:15;;;;;;;5.85;5.22;;;;;;;;;;6182047;23;20024;-92
2024/01/29 10:19:45;;;;;;;11.50;6.47;;;;;;;;;;6181114;23;20035;-92
2024/01/29 10:22:14;;;;;;;8.02;5.53;;;;;;;;;;6183117;23;20016;-91
2024/01/29 10:24:42;;;;;;;7.50;5.50;;;;;;;;;;6179628;23;20853;-92
2024/01/29 10:27:11;;;;;;;7.80;5.78;;;;;;;;;;6208544;23;20020;-91
2024/01/29 10:29:51;;;;;;;7.88;6.20;;;;;;;;;;6207334;23;20746;-93
2024/01/29 10:32:20;;;;;;;7.68;5.53;;;;;;;;;;6184308;23;20022;-92
2024/01/29 10:34:48;;;;;;;7.30;5.82;;;;;;;;;;6182927;23;20023;-91
2024/01/29 10:37:15;;;;;;;6.32;5.63;;;;;;;;;;6184753;23;20022;-92
2024/01/29 10:39:47;;;;;;;8.85;6.28;;;;;;;;;;6181558;23;20051;-92
2024/01/29 10:42:17;;;;;;;7.72;5.97;;;;;;;;;;6208427;23;20024;-91
2024/01/29 10:44:45;;;;;;;7.18;5.95;;;;;;;;;;6181657;23;20439;-92
2024/01/29 10:47:18;;;;;;;8.00;5.95;;;;;;;;;;6209460;23;20096;-92
2024/01/29 10:49:47;;;;;;;7.00;5.85;;;;;;;;;;6181407;23;20073;-91
2024/01/29 10:52:17;;;;;;;6.97;5.50;;;;;;;;;;6210013;23;20061;-91
2024/01/29 10:54:44;;;;;;;6.72;5.80;;;;;;;;;;6180741;23;20043;-91
2024/01/29 10:57:11;;;;;;;6.55;5.85;;;;;;;;;;6208843;23;20031;-93
2024/01/29 10:59:43;;;;;;;7.32;5.95;;;;;;;;;;6182144;23;20095;-92
2024/01/29 11:02:15;;;;;;;7.40;6.05;;;;;;;;;;6209930;23;20016;-91
2024/01/29 11:04:45;;;;;;;9.60;6.80;;;;;;;;;;6205664;23;20095;-91
2024/01/29 11:07:15;;;;;;;10.57;5.57;;;;;;;;;;6184100;23;20043;-91
2024/01/29 11:09:46;;;;;;;9.15;6.22;;;;;;;;;;6180288;23;20031;-91
2024/01/29 11:12:14;;;;;;;8.98;6.38;;;;;;;;;;6204822;23;20026;-92
2024/01/29 11:14:47;;;;;;;7.05;6.25;;;;;;;;;;6180627;23;20024;-90
2024/01/29 11:17:14;;;;;;;9.63;6.75;;;;;;;;;;6188733;23;20020;-92
2024/01/29 11:19:46;;;;;;;8.68;6.43;;;;;;;;;;6180108;23;20028;-91
2024/01/29 11:22:14;;;;;;;8.50;6.57;;;;;;;;;;6182488;23;20042;-91
2024/01/29 11:24:44;;;;;;;8.68;6.68;;;;;;;;;;6181205;23;20023;-93
2024/01/29 11:27:13;;;;;;;10.82;6.78;;;;;;;;;;6186839;23;20103;-92
2024/01/29 11:29:41;;;;;;;9.00;7.10;;;;;;;;;;6206769;23;20062;-93
2024/01/29 11:32:19;;;;;;;8.57;6.80;;;;;;;;;;6208742;23;20455;-90
2024/01/29 11:34:48;;;;;;;8.88;6.55;;;;;;;;;;6182366;23;20099;-91
2024/01/29 11:37:24;;;;;;;9.85;7.68;;;;;;;;;;6184764;23;20449;-91
2024/01/29 11:39:52;;;;;;;10.02;7.05;;;;;;;;;;6181697;23;20016;-92
2024/01/29 11:42:19;;;;;;;11.70;7.70;;;;;;;;;;6207920;23;20077;-91
2024/01/29 11:44:45;;;;;;;10.75;7.68;;;;;;;;;;6183844;23;20012;-91
2024/01/29 11:47:13;;;;;;;9.40;7.00;;;;;;;;;;6185262;23;20016;-91
2024/01/29 11:49:41;;;;;;;9.95;7.13;;;;;;;;;;6205530;23;20341;-93
2024/01/29 11:52:09;;;;;;;9.40;7.72;;;;;;;;;;6184839;23;20019;-92
2024/01/29 11:54:37;;;;;;;8.40;6.93;;;;;;;;;;6181464;23;20888;-91
2024/01/29 11:57:04;;;;;;;11.40;7.57;;;;;;;;;;6183137;23;20020;-92
2024/01/29 11:59:32;;;;;;;9.20;6.88;;;;;;;;;;6182360;23;20107;-90
2024/01/29 12:02:00;;;;;;;10.80;6.72;;;;;;;;;;6182223;23;20052;-92
2024/01/29 12:04:27;;;;;;;;;;;;;;;;;;6209847;23;20023;-92
2024/01/29 12:06:55;;;;;;;10.18;7.53;;;;;;;;;;6212931;23;19920;-92
2024/01/29 12:09:29;;;;;;;10.63;7.65;;;;;;;;;;6213030;23;20319;-92
2024/01/29 12:11:56;;;;;;;12.30;7.68;;;;;;;;;;6211667;22;20004;-92
2024/01/29 12:14:25;;;;;;;10.52;7.40;;;;;;;;;;6210853;23;20558;-92
2024/01/29 12:16:52;;;;;;;9.98;7.35;;;;;;;;;;6204301;22;20020;-92
2024/01/29 12:19:21;;;;;;;7.88;6.38;;;;;;;;;;6202404;22;20003;-91
2024/01/29 12:21:51;;;;;;;9.48;7.13;;;;;;;;;;6260761;22;20055;-91
2024/01/29 12:24:20;;;;;;;10.52;7.85;;;;;;;;;;6262983;22;20007;-91
2024/01/29 12:26:49;;;;;;;15.00;7.82;;;;;;;;;;6186008;22;20108;-92
2024/01/29 12:29:15;;;;;;;8.98;7.93;;;;;;;;;;6225080;22;20003;-90
2024/01/29 12:31:44;;;;;;;10.65;8.75;;;;;;;;;;6194317;22;20015;-91
2024/01/29 12:34:20;;;;;;;9.98;7.72;;;;;;;;;;6220529;22;20015;-92
2024/01/29 12:36:55;;;;;;;10.02;7.95;;;;;;;;;;6211659;22;20348;-92
2024/01/29 12:39:23;;;;;;;15.45;8.65;;;;;;;;;;6215236;22;20072;-91
2024/01/29 12:41:50;;;;;;;14.15;9.18;;;;;;;;;;6210643;22;20463;-90
2024/01/29 12:44:19;;;;;;;11.63;8.00;;;;;;;;;;6187956;22;20016;-91
2024/01/29 12:46:55;;;;;;;10.82;8.15;;;;;;;;;;6237992;22;20022;-92
2024/01/29 12:49:23;;;;;;;14.45;8.85;;;;;;;;;;6188553;22;20103;-92
2024/01/29 12:51:50;;;;;;;;;;;;;;;;;;6186470;22;20102;-92
2024/01/29 12:54:19;;;;;;;15.57;9.70;;;;;;;;;;6239684;22;19921;-92
2024/01/29 12:56:47;;;;;;;15.73;9.23;;;;;;;;;;6185072;22;20480;-93
2024/01/29 12:59:17;;;;;;;13.85;8.02;;;;;;;;;;6213004;22;20104;-92
2024/01/29 13:01:45;;;;;;;13.48;8.45;;;;;;;;;;6185998;22;20047;-92
2024/01/29 13:04:12;;;;;;;15.98;8.98;;;;;;;;;;6190364;22;20463;-92
2024/01/29 13:06:38;;;;;;;16.25;10.20;;;;;;;;;;6212223;22;20019;-92
2024/01/29 13:09:08;;;;;;;15.70;9.73;;;;;;;;;;6234462;22;20073;-92
2024/01/29 13:11:34;;;;;;;20.88;11.00;;;;;;;;;;6212894;22;20020;-92
2024/01/29 13:14:02;;;;;;;18.17;10.10;;;;;;;;;;6209298;22;20012;-92
2024/01/29 13:16:30;;;;;;;18.55;10.15;;;;;;;;;;6212241;22;20456;-93
2024/01/29 13:18:57;;;;;;;21.63;10.73;;;;;;;;;;6235876;22;20028;-93
2024/01/29 13:21:24;;;;;;;18.02;10.93;;;;;;;;;;6212632;22;20019;-92
2024/01/29 13:23:50;;;;;;;15.40;9.65;;;;;;;;;;6209889;22;20506;-91
2024/01/29 13:26:16;;;;;;;16.33;9.65;;;;;;;;;;6213064;22;20020;-91
2024/01/29 13:28:45;;;;;;;18.05;11.15;;;;;;;;;;6210019;22;20023;-92
2024/01/29 13:31:12;;;;;;;14.00;9.30;;;;;;;;;;6213389;22;20016;-93
2024/01/29 13:33:40;;;;;;;14.18;9.50;;;;;;;;;;6210800;22;20490;-93
2024/01/29 13:36:09;;;;;;;13.93;8.85;;;;;;;;;;6216708;22;20042;-93
2024/01/29 13:38:41;;;;;;;13.27;9.13;;;;;;;;;;6235342;22;20023;-92
2024/01/29 13:41:12;;;;;;;17.67;9.48;;;;;;;;;;6191681;22;20027;-93
2024/01/29 13:43:38;;;;;;;16.58;10.02;;;;;;;;;;6211824;22;20467;-91
2024/01/29 13:46:06;;;;;;;16.60;11.10;;;;;;;;;;6217053;22;20178;-91
2024/01/29 13:48:33;;;;;;;14.98;10.15;;;;;;;;;;6240563;22;20092;-92
2024/01/29 13:51:03;;;;;;;15.98;9.02;;;;;;;;;;6214016;22;20067;-92
2024/01/29 13:53:31;;;;;;;18.48;9.13;;;;;;;;;;6189292;22;20016;-92
2024/01/29 13:55:59;;;;;;;;;;;;;;;;;;6187246;22;20094;-92
2024/01/29 13:58:26;;;;;;;13.43;9.03;;;;;;;;;;6215148;22;19915;-93
2024/01/29 14:00:57;;;;;;;13.32;9.27;;;;;;;;;;6213138;22;20015;-91
2024/01/29 14:03:24;;;;;;;12.90;9.50;;;;;;;;;;6190119;22;20019;-91
2024/01/29 14:05:52;;;;;;;12.35;9.18;;;;;;;;;;6213037;22;20297;-92
2024/01/29 14:08:19;;;;;;;;;;;;;;;;;;6190665;22;20020;-93
2024/01/29 14:10:45;;;;;;;9.77;8.05;;;;;;;;;;6213537;22;19922;-91
2024/01/29 14:13:15;;;;;;;12.68;9.18;;;;;;;;;;6191335;22;20102;-93
2024/01/29 14:15:44;;;;;;;11.98;8.88;;;;;;;;;;6214573;22;20068;-91
2024/01/29 14:18:12;;;;;;;12.63;9.02;;;;;;;;;;6215553;22;20011;-93
2024/01/29 14:20:39;;;;;;;13.48;8.45;;;;;;;;;;6239780;22;20022;-93
2024/01/29 14:23:07;;;;;;;12.70;9.18;;;;;;;;;;6240057;22;20015;-92
2024/01/29 14:25:36;;;;;;;11.50;8.73;;;;;;;;;;6216120;22;20081;-93
2024/01/29 14:28:03;;;;;;;13.18;9.30;;;;;;;;;;6190049;22;20023;-92
2024/01/29 14:30:31;;;;;;;13.50;9.30;;;;;;;;;;6215598;22;20074;-91
2024/01/29 14:32:59;;;;;;;13.88;9.43;;;;;;;;;;6188826;22;20569;-93
2024/01/29 14:35:26;;;;;;;12.90;8.23;;;;;;;;;;6190382;22;20020;-91
2024/01/29 14:37:54;;;;;;;13.80;9.63;;;;;;;;;;6213032;22;20016;-92
2024/01/29 14:40:23;;;;;;;10.90;8.48;;;;;;;;;;6215861;22;20444;-92
2024/01/29 14:42:51;;;;;;;12.35;8.85;;;;;;;;;;6188082;22;20436;-92
2024/01/29 14:45:18;;;;;;;10.38;8.18;;;;;;;;;;6190418;22;20446;-93
2024/01/29 14:47:48;;;;;;;12.90;9.40;;;;;;;;;;6213398;22;20024;-92
2024/01/29 14:50:17;;;;;;;10.35;8.60;;;;;;;;;;6215213;22;20133;-92
2024/01/29 14:52:54;;;;;;;12.85;8.55;;;;;;;;;;6189444;22;20015;-90
2024/01/29 14:55:20;;;;;;;11.10;8.48;;;;;;;;;;6188501;22;20024;-92
2024/01/29 14:57:48;;;;;;;9.25;8.13;;;;;;;;;;6210286;22;20023;-91
2024/01/29 15:00:14;;;;;;;13.10;9.10;;;;;;;;;;6191205;22;20348;-90
2024/01/29 15:02:43;;;;;;;12.50;8.77;;;;;;;;;;6184363;22;20085;-91
2024/01/29 15:05:11;;;;;;;12.57;8.57;;;;;;;;;;6211587;22;20104;-90
2024/01/29 15:07:41;;;;;;;11.30;9.38;;;;;;;;;;6185790;22;20081;-91
2024/01/29 15:10:17;;;;;;;11.23;8.52;;;;;;;;;;6190911;22;20026;-91
2024/01/29 15:12:46;;;;;;;11.48;9.02;;;;;;;;;;6174303;22;20501;-90
2024/01/29 15:15:14;;;;;;;13.00;8.48;;;;;;;;;;6187917;22;20762;-90
2024/01/29 15:17:41;;;;;;;13.63;8.52;;;;;;;;;;6220950;23;20024;-90